createdAt,value
2017-10-24T00:01:31.068Z,15.87
2017-10-24T00:04:00.006Z,7.60
2017-10-24T00:06:29.723Z,8.27
2017-10-24T00:08:58.654Z,8.07
2017-10-24T00:11:27.617Z,7.50
2017-10-24T00:13:56.563Z,6.20
2017-10-24T00:16:26.272Z,6.73
2017-10-24T00:18:55.191Z,3.87
2017-10-24T00:21:24.555Z,13.50
2017-10-24T00:23:53.871Z,8.70
2017-10-24T00:26:23.583Z,6.07
2017-10-24T00:28:52.536Z,6.47
2017-10-24T00:31:21.511Z,8.27
2017-10-24T00:33:50.446Z,6.70
2017-10-24T00:36:19.782Z,11.03
2017-10-24T00:38:48.747Z,5.80
2017-10-24T00:41:17.674Z,9.77
2017-10-24T00:43:47.390Z,8.10
2017-10-24T00:46:17.088Z,10.67
2017-10-24T00:48:46.805Z,6.33
2017-10-24T00:51:16.520Z,10.13
2017-10-24T00:53:46.236Z,6.67
2017-10-24T00:56:15.189Z,11.50
2017-10-24T00:58:44.151Z,7.40
2017-10-24T01:01:13.486Z,10.73
2017-10-24T01:03:42.461Z,6.13
2017-10-24T01:06:11.429Z,7.20
2017-10-24T01:08:40.383Z,4.67
2017-10-24T01:11:10.209Z,3.43
2017-10-24T01:13:39.928Z,9.73
2017-10-24T01:16:09.642Z,7.20
2017-10-24T01:18:38.624Z,10.63
2017-10-24T01:21:07.559Z,7.00
2017-10-24T01:23:36.915Z,5.00
2017-10-24T01:26:06.606Z,7.57
2017-10-24T01:28:35.589Z,7.83
2017-10-24T01:31:04.509Z,6.07
2017-10-24T01:33:33.439Z,13.13
2017-10-24T01:36:02.396Z,8.07
2017-10-24T01:38:32.465Z,15.03
2017-10-24T01:41:01.428Z,10.17
2017-10-24T01:43:31.138Z,6.70
2017-10-24T01:46:00.094Z,13.97
2017-10-24T01:48:29.029Z,8.30
2017-10-24T01:50:57.974Z,9.27
2017-10-24T01:53:26.900Z,5.43
2017-10-24T01:55:55.871Z,6.77
2017-10-24T01:58:24.812Z,9.60
2017-10-24T02:00:53.764Z,7.53
2017-10-24T02:03:22.785Z,11.57
2017-10-24T02:05:51.788Z,11.67
2017-10-24T02:08:21.496Z,6.50
2017-10-24T02:10:50.441Z,6.47
2017-10-24T02:13:19.376Z,7.47
2017-10-24T02:15:48.336Z,16.17
2017-10-24T02:18:18.054Z,11.83
2017-10-24T02:20:47.004Z,9.63
2017-10-24T02:23:15.904Z,10.13
2017-10-24T02:25:44.893Z,10.10
2017-10-24T02:28:13.832Z,10.00
2017-10-24T02:30:42.789Z,9.67
2017-10-24T02:33:11.727Z,11.27
2017-10-24T02:35:41.464Z,15.57
2017-10-24T02:38:10.410Z,13.43
2017-10-24T02:40:39.363Z,10.10
2017-10-24T02:43:08.707Z,11.57
2017-10-24T02:45:37.658Z,13.63
2017-10-24T02:48:06.611Z,11.00
2017-10-24T02:50:36.296Z,12.20
2017-10-24T02:53:05.234Z,15.37
2017-10-24T02:55:34.232Z,12.70
2017-10-24T02:58:03.548Z,29.73
2017-10-24T03:00:32.556Z,14.93
2017-10-24T03:03:01.499Z,17.30
2017-10-24T03:05:30.497Z,17.57
2017-10-24T03:07:59.444Z,18.63
2017-10-24T03:10:29.281Z,25.53
2017-10-24T03:12:58.977Z,15.57
2017-10-24T03:15:28.725Z,21.40
2017-10-24T03:17:57.696Z,18.90
2017-10-24T03:20:26.691Z,22.23
2017-10-24T03:22:55.637Z,21.57
2017-10-24T03:25:24.616Z,20.17
2017-10-24T03:27:53.559Z,19.73
2017-10-24T03:30:23.281Z,18.53
2017-10-24T03:32:52.738Z,23.33
2017-10-24T03:35:21.778Z,23.97
2017-10-24T03:37:50.723Z,21.30
2017-10-24T03:40:19.701Z,29.63
2017-10-24T03:42:48.664Z,21.00
2017-10-24T03:45:17.624Z,27.60
2017-10-24T03:47:46.591Z,28.10
2017-10-24T03:50:16.347Z,25.43
2017-10-24T03:52:45.695Z,32.70
2017-10-24T03:55:14.912Z,26.27
2017-10-24T03:57:43.835Z,38.27
2017-10-24T04:00:12.810Z,26.73
2017-10-24T04:02:41.785Z,29.57
2017-10-24T04:05:11.537Z,28.60
2017-10-24T04:07:40.499Z,35.33
2017-10-24T04:10:09.477Z,41.77
2017-10-24T04:12:39.213Z,34.10
2017-10-24T04:15:08.153Z,32.93
2017-10-24T04:17:37.116Z,33.90
2017-10-24T04:20:06.125Z,35.47
2017-10-24T04:22:35.088Z,35.07
2017-10-24T04:25:04.801Z,39.97
2017-10-24T04:27:34.532Z,32.90
2017-10-24T04:30:03.491Z,40.57
2017-10-24T04:32:32.462Z,38.70
2017-10-24T04:35:01.409Z,43.03
2017-10-24T04:37:30.800Z,45.13
2017-10-24T04:40:00.600Z,42.53
2017-10-24T04:42:29.565Z,39.43
2017-10-24T04:44:58.524Z,44.63
2017-10-24T04:47:27.914Z,48.30
2017-10-24T04:49:56.852Z,37.30
2017-10-24T04:52:25.796Z,41.53
2017-10-24T04:54:55.192Z,49.50
2017-10-24T04:57:24.127Z,43.13
2017-10-24T04:59:53.572Z,50.60
2017-10-24T05:02:22.516Z,44.77
2017-10-24T05:04:52.263Z,38.80
2017-10-24T05:07:21.211Z,51.10
2017-10-24T05:09:50.588Z,53.43
2017-10-24T05:12:19.537Z,51.27
2017-10-24T05:14:48.522Z,45.57
2017-10-24T05:17:17.482Z,47.20
2017-10-24T05:19:47.254Z,50.97
2017-10-24T05:22:16.990Z,51.30
2017-10-24T05:24:46.685Z,47.00
2017-10-24T05:27:15.622Z,50.13
2017-10-24T05:29:44.592Z,49.93
2017-10-24T05:32:14.297Z,50.53
2017-10-24T05:34:43.655Z,52.57
2017-10-24T05:37:12.604Z,55.70
2017-10-24T05:39:41.967Z,45.53
2017-10-24T05:42:10.873Z,47.93
2017-10-24T05:44:40.612Z,61.30
2017-10-24T05:47:09.555Z,53.50
2017-10-24T05:49:38.514Z,51.80
2017-10-24T05:52:07.464Z,71.68
2017-10-24T05:54:36.527Z,60.03
2017-10-24T05:57:05.572Z,71.90
2017-10-24T05:59:34.516Z,65.50
2017-10-24T06:02:03.473Z,60.50
2017-10-24T06:04:32.448Z,67.07
2017-10-24T06:07:01.399Z,68.40
2017-10-24T06:09:30.752Z,65.73
2017-10-24T06:11:59.707Z,69.30
2017-10-24T06:14:29.437Z,73.30
2017-10-24T06:16:58.368Z,74.40
2017-10-24T06:19:27.338Z,80.33
2017-10-24T06:21:57.415Z,65.60
2017-10-24T06:24:27.142Z,78.83
2017-10-24T06:26:56.993Z,71.83
2017-10-24T06:29:27.470Z,68.37
2017-10-24T06:31:56.435Z,81.70
2017-10-24T06:34:25.803Z,78.87
2017-10-24T06:36:54.738Z,68.60
2017-10-24T06:39:24.483Z,73.40
2017-10-24T06:41:53.532Z,71.13
2017-10-24T06:44:23.269Z,84.07
2017-10-24T06:46:53.440Z,92.78
2017-10-24T06:49:23.094Z,86.40
2017-10-24T06:51:52.070Z,80.80
2017-10-24T06:54:21.782Z,78.83
2017-10-24T06:56:51.150Z,93.77
2017-10-24T06:59:20.487Z,79.40
2017-10-24T07:01:49.463Z,66.50
2017-10-24T07:04:18.395Z,77.97
2017-10-24T07:06:47.333Z,77.30
2017-10-24T07:09:16.345Z,79.83
2017-10-24T07:11:46.096Z,68.67
2017-10-24T07:14:15.099Z,74.50
2017-10-24T07:16:44.098Z,68.10
2017-10-24T07:19:13.470Z,69.70
2017-10-24T07:21:42.423Z,62.33
2017-10-24T07:24:12.165Z,58.10
2017-10-24T07:26:41.502Z,61.13
2017-10-24T07:29:10.471Z,63.63
2017-10-24T07:31:39.430Z,56.53
2017-10-24T07:34:08.451Z,55.17
2017-10-24T07:36:37.394Z,55.43
2017-10-24T07:39:06.381Z,54.17
2017-10-24T07:41:35.370Z,62.13
2017-10-24T07:44:04.355Z,61.00
2017-10-24T07:46:33.303Z,58.40
2017-10-24T07:49:03.079Z,62.40
2017-10-24T07:51:32.794Z,63.57
2017-10-24T07:54:02.542Z,57.50
2017-10-24T07:56:31.500Z,57.30
2017-10-24T07:59:00.453Z,52.07
2017-10-24T08:01:29.494Z,70.80
2017-10-24T08:03:58.441Z,59.60
2017-10-24T08:06:27.456Z,67.73
2017-10-24T08:08:57.162Z,57.90
2017-10-24T08:11:26.224Z,58.67
2017-10-24T08:13:55.173Z,60.30
2017-10-24T08:16:24.157Z,58.43
2017-10-24T08:18:53.120Z,55.03
2017-10-24T08:21:22.856Z,60.97
2017-10-24T08:23:51.798Z,50.70
2017-10-24T08:26:20.781Z,52.50
2017-10-24T08:28:49.736Z,58.00
2017-10-24T08:31:18.705Z,50.93
2017-10-24T08:33:48.492Z,52.73
2017-10-24T08:36:17.481Z,46.40
2017-10-24T08:38:46.460Z,45.63
2017-10-24T08:41:15.431Z,40.50
2017-10-24T08:43:54.310Z,51.93
2017-10-24T08:46:24.089Z,44.63
2017-10-24T08:48:53.077Z,36.23
2017-10-24T08:51:22.052Z,40.90
2017-10-24T08:53:50.997Z,43.87
2017-10-24T08:56:20.748Z,37.20
2017-10-24T08:58:49.740Z,40.80
2017-10-24T09:01:26.281Z,37.23
2017-10-24T09:03:55.991Z,34.30
2017-10-24T09:06:33.518Z,38.83
2017-10-24T09:09:27.191Z,36.73
2017-10-24T09:12:07.711Z,28.93
2017-10-24T09:14:36.675Z,27.83
2017-10-24T09:17:43.973Z,28.70
2017-10-24T09:20:13.701Z,35.13
2017-10-24T09:22:42.707Z,32.90
2017-10-24T09:25:11.698Z,28.63
2017-10-24T09:27:40.665Z,27.90
2017-10-24T09:30:10.389Z,27.10
2017-10-24T09:32:39.387Z,26.80
2017-10-24T09:35:08.406Z,23.70
2017-10-24T09:37:37.474Z,27.03
2017-10-24T09:40:06.466Z,23.00
2017-10-24T09:42:35.426Z,24.23
2017-10-24T09:45:04.393Z,21.50
2017-10-24T09:47:34.502Z,20.50
2017-10-24T09:50:03.849Z,24.00
2017-10-24T09:52:33.587Z,18.97
2017-10-24T09:55:02.567Z,17.10
2017-10-24T09:57:32.559Z,15.43
2017-10-24T10:00:01.549Z,15.63
2017-10-24T10:02:31.393Z,15.67
2017-10-24T10:05:00.341Z,14.87
2017-10-24T10:07:29.775Z,13.83
2017-10-24T10:09:58.754Z,14.57
2017-10-24T10:12:28.489Z,14.17
2017-10-24T10:14:58.330Z,16.27
2017-10-24T10:17:27.677Z,11.00
2017-10-24T10:19:56.665Z,15.10
2017-10-24T10:22:26.378Z,11.07
2017-10-24T10:24:56.118Z,11.77
2017-10-24T10:27:25.172Z,12.47
2017-10-24T10:29:54.225Z,12.40
2017-10-24T10:32:23.272Z,13.40
2017-10-24T10:34:52.994Z,12.80
2017-10-24T10:37:21.963Z,11.87
2017-10-24T10:39:51.767Z,11.03
2017-10-24T10:42:20.684Z,13.77
2017-10-24T10:44:49.637Z,14.93
2017-10-24T10:47:18.610Z,14.57
2017-10-24T10:49:47.560Z,13.00
2017-10-24T10:52:16.575Z,14.50
2017-10-24T10:54:45.531Z,12.30
2017-10-24T10:57:17.686Z,14.40
2017-10-24T10:59:47.599Z,15.90
2017-10-24T11:02:16.540Z,13.37
2017-10-24T11:04:45.553Z,16.73
2017-10-24T11:07:14.639Z,14.30
2017-10-24T11:09:43.632Z,15.83
2017-10-24T11:12:13.403Z,13.03
2017-10-24T11:14:42.362Z,14.60
2017-10-24T11:17:12.104Z,15.10
2017-10-24T11:19:41.445Z,12.47
2017-10-24T11:22:12.839Z,12.33
2017-10-24T11:24:42.621Z,13.03
2017-10-24T11:27:11.613Z,15.63
2017-10-24T11:29:40.569Z,14.03
2017-10-24T11:32:09.554Z,14.47
2017-10-24T11:34:39.322Z,12.73
2017-10-24T11:37:09.072Z,12.80
2017-10-24T11:39:39.867Z,13.10
2017-10-24T11:42:08.802Z,13.90
2017-10-24T11:44:37.811Z,15.40
2017-10-24T11:47:07.287Z,12.80
2017-10-24T11:49:36.347Z,15.13
2017-10-24T11:52:05.292Z,13.80
2017-10-24T11:54:34.655Z,14.50
2017-10-24T11:57:03.599Z,15.73
2017-10-24T11:59:32.660Z,19.13
2017-10-24T12:02:01.812Z,17.63
2017-10-24T12:04:30.845Z,20.27
2017-10-24T12:06:59.790Z,16.60
2017-10-24T12:09:29.599Z,16.30
2017-10-24T12:11:58.542Z,19.87
2017-10-24T12:14:27.551Z,19.40
2017-10-24T12:16:56.522Z,15.47
2017-10-24T12:19:25.536Z,17.53
2017-10-24T12:21:54.529Z,16.70
2017-10-24T12:24:23.516Z,17.40
2017-10-24T12:26:52.472Z,20.17
2017-10-24T12:29:21.481Z,18.83
2017-10-24T12:31:50.459Z,17.63
2017-10-24T12:34:20.202Z,15.63
2017-10-24T12:36:49.242Z,17.93
2017-10-24T12:39:18.984Z,19.23
2017-10-24T12:41:48.533Z,17.47
2017-10-24T12:44:19.969Z,17.03
2017-10-24T12:46:49.738Z,16.40
2017-10-24T12:49:33.694Z,19.07
2017-10-24T12:52:02.650Z,17.40
2017-10-24T12:54:32.397Z,18.70
2017-10-24T12:57:01.409Z,20.63
2017-10-24T12:59:35.695Z,19.83
2017-10-24T13:02:05.528Z,16.83
2017-10-24T13:04:34.485Z,16.23
2017-10-24T13:07:03.469Z,18.57
2017-10-24T13:09:33.202Z,16.60
2017-10-24T13:12:02.170Z,18.60
2017-10-24T13:14:31.883Z,19.03
2017-10-24T13:17:00.979Z,19.27
2017-10-24T13:19:29.941Z,21.53
2017-10-24T13:21:58.928Z,19.40
2017-10-24T13:24:27.873Z,19.03
2017-10-24T13:26:57.642Z,19.77
2017-10-24T13:29:26.604Z,18.33
2017-10-24T13:31:56.429Z,18.77
2017-10-24T13:34:25.450Z,20.07
2017-10-24T13:36:55.212Z,25.13
2017-10-24T13:39:24.211Z,24.43
2017-10-24T13:41:53.261Z,21.33
2017-10-24T13:44:22.236Z,23.70
2017-10-24T13:46:51.979Z,27.43
2017-10-24T13:49:20.958Z,24.80
2017-10-24T13:51:49.940Z,23.13
2017-10-24T13:54:19.708Z,23.10
2017-10-24T13:56:48.692Z,24.27
2017-10-24T13:59:18.075Z,26.00
2017-10-24T14:01:47.094Z,23.50
2017-10-24T14:04:30.982Z,22.00
2017-10-24T14:07:05.514Z,26.43
2017-10-24T14:09:40.087Z,21.43
2017-10-24T14:12:09.062Z,28.17
2017-10-24T14:14:38.766Z,27.47
2017-10-24T14:17:07.726Z,22.97
2017-10-24T14:19:37.934Z,22.40
2017-10-24T14:22:06.996Z,28.00
2017-10-24T14:24:36.191Z,24.97
2017-10-24T14:27:05.189Z,27.60
2017-10-24T14:29:34.913Z,25.33
2017-10-24T14:32:04.673Z,26.83
2017-10-24T14:34:33.614Z,27.20
2017-10-24T14:37:03.376Z,22.20
2017-10-24T14:39:32.336Z,22.40
2017-10-24T14:42:01.741Z,26.37
2017-10-24T14:44:30.740Z,22.63
2017-10-24T14:46:59.700Z,23.40
2017-10-24T14:49:29.483Z,19.20
2017-10-24T14:51:58.434Z,23.10
2017-10-24T14:54:27.448Z,18.63
2017-10-24T14:56:56.427Z,19.77
2017-10-24T14:59:25.441Z,15.70
2017-10-24T15:01:54.440Z,20.77
2017-10-24T15:04:23.873Z,17.43
2017-10-24T15:06:52.886Z,21.10
2017-10-24T15:09:21.844Z,14.97
2017-10-24T15:11:51.578Z,15.00
2017-10-24T15:14:20.629Z,14.20
2017-10-24T15:16:50.018Z,14.07
2017-10-24T15:19:19.414Z,18.50
2017-10-24T15:21:48.385Z,15.47
2017-10-24T15:24:18.869Z,15.20
2017-10-24T15:26:47.798Z,16.03
2017-10-24T15:29:16.832Z,13.20
2017-10-24T15:31:45.817Z,17.97
2017-10-24T15:34:15.295Z,15.07
2017-10-24T15:36:45.697Z,13.07
2017-10-24T15:39:15.133Z,13.97
2017-10-24T15:41:44.837Z,14.63
2017-10-24T15:44:13.895Z,12.93
2017-10-24T15:46:43.677Z,11.77
2017-10-24T15:49:12.735Z,13.30
2017-10-24T15:51:42.582Z,10.90
2017-10-24T15:54:11.606Z,14.37
2017-10-24T15:56:41.393Z,15.23
2017-10-24T15:59:11.358Z,11.10
2017-10-24T16:01:41.176Z,13.47
2017-10-24T16:04:10.489Z,13.27
2017-10-24T16:06:39.466Z,12.30
2017-10-24T16:09:08.464Z,11.27
2017-10-24T16:11:37.429Z,9.73
2017-10-24T16:14:06.368Z,11.30
2017-10-24T16:16:35.738Z,12.13
2017-10-24T16:19:04.675Z,12.90
2017-10-24T16:21:33.650Z,20.23
2017-10-24T16:24:02.608Z,10.33
2017-10-24T16:26:31.585Z,11.33
2017-10-24T16:29:00.529Z,11.93
2017-10-24T16:31:30.264Z,11.10
2017-10-24T16:33:59.221Z,11.30
2017-10-24T16:36:28.584Z,14.60
2017-10-24T16:38:57.513Z,12.73
2017-10-24T16:41:26.504Z,11.87
2017-10-24T16:43:55.604Z,13.87
2017-10-24T16:46:24.683Z,13.70
2017-10-24T16:48:53.701Z,12.73
2017-10-24T16:51:22.656Z,17.00
2017-10-24T16:53:51.685Z,14.63
2017-10-24T16:56:20.640Z,16.97
2017-10-24T16:58:49.659Z,15.53
2017-10-24T17:01:18.611Z,17.93
2017-10-24T17:03:47.987Z,18.10
2017-10-24T17:06:17.381Z,16.30
2017-10-24T17:08:47.110Z,17.57
2017-10-24T17:11:16.140Z,19.87
2017-10-24T17:13:45.141Z,17.67
2017-10-24T17:16:14.117Z,17.07
2017-10-24T17:18:43.166Z,21.03
2017-10-24T17:21:12.972Z,18.00
2017-10-24T17:23:42.065Z,20.37
2017-10-24T17:26:11.058Z,16.80
2017-10-24T17:28:40.016Z,19.67
2017-10-24T17:31:09.009Z,15.10
2017-10-24T17:33:37.971Z,17.40
2017-10-24T17:36:06.951Z,20.83
2017-10-24T17:38:35.944Z,17.17
2017-10-24T17:41:04.922Z,20.30
2017-10-24T17:43:34.638Z,20.83
2017-10-24T17:46:03.709Z,21.87
2017-10-24T17:48:33.433Z,18.50
2017-10-24T17:51:02.437Z,22.60
2017-10-24T17:53:31.370Z,22.87
2017-10-24T17:56:00.369Z,21.00
2017-10-24T17:58:29.360Z,24.30
2017-10-24T18:00:58.378Z,25.30
2017-10-24T18:03:27.346Z,19.97
2017-10-24T18:05:56.421Z,21.60
2017-10-24T18:08:25.375Z,19.50
2017-10-24T18:10:55.113Z,25.03
2017-10-24T18:13:24.116Z,23.63
2017-10-24T18:15:53.089Z,23.60
2017-10-24T18:18:22.096Z,24.00
2017-10-24T18:20:51.086Z,28.97
2017-10-24T18:23:20.032Z,26.50
2017-10-24T18:25:49.030Z,23.20
2017-10-24T18:28:18.417Z,27.50
2017-10-24T18:30:48.226Z,29.17
2017-10-24T18:33:17.957Z,27.67
2017-10-24T18:35:47.340Z,35.13
2017-10-24T18:38:16.438Z,29.37
2017-10-24T18:40:46.223Z,24.73
2017-10-24T18:43:15.237Z,25.93
2017-10-24T18:45:45.006Z,26.20
2017-10-24T18:48:13.980Z,22.70
2017-10-24T18:50:46.848Z,26.67
2017-10-24T18:53:15.873Z,30.40
2017-10-24T18:55:44.879Z,29.10
2017-10-24T18:58:13.907Z,32.37
2017-10-24T19:00:43.758Z,30.73
2017-10-24T19:03:12.761Z,35.50
2017-10-24T19:05:41.756Z,35.00
2017-10-24T19:08:11.035Z,35.13
2017-10-24T19:10:40.068Z,30.93
2017-10-24T19:13:09.084Z,32.80
2017-10-24T19:15:38.867Z,32.30
2017-10-24T19:18:07.908Z,34.17
2017-10-24T19:20:36.926Z,39.57
2017-10-24T19:23:05.943Z,36.10
2017-10-24T19:25:34.970Z,32.63
2017-10-24T19:28:05.491Z,38.77
2017-10-24T19:30:35.365Z,43.90
2017-10-24T19:33:04.790Z,39.20
2017-10-24T19:35:33.819Z,43.80
2017-10-24T19:38:02.794Z,43.23
2017-10-24T19:40:33.500Z,38.43
2017-10-24T19:43:02.551Z,44.03
2017-10-24T19:45:31.575Z,47.87
2017-10-24T19:48:01.965Z,45.37
2017-10-24T19:50:31.041Z,39.77
2017-10-24T19:53:00.416Z,42.77
2017-10-24T19:55:30.005Z,44.10
2017-10-24T19:57:59.104Z,48.47
2017-10-24T20:00:28.168Z,44.27
2017-10-24T20:02:57.205Z,55.83
2017-10-24T20:05:26.658Z,44.07
2017-10-24T20:07:55.689Z,44.23
2017-10-24T20:10:24.795Z,45.43
2017-10-24T20:12:55.493Z,42.60
2017-10-24T20:15:24.579Z,45.17
2017-10-24T20:17:53.955Z,44.47
2017-10-24T20:20:22.945Z,46.40
2017-10-24T20:22:53.060Z,50.50
2017-10-24T20:25:22.438Z,40.83
2017-10-24T20:27:52.205Z,37.50
2017-10-24T20:30:21.195Z,38.60
2017-10-24T20:32:50.132Z,34.80
2017-10-24T20:35:19.477Z,37.13
2017-10-24T20:37:48.463Z,38.50
2017-10-24T20:40:18.276Z,41.00
2017-10-24T20:42:48.384Z,31.37
2017-10-24T20:45:17.409Z,38.50
2017-10-24T20:47:47.155Z,32.77
2017-10-24T20:50:16.162Z,29.73
2017-10-24T20:52:48.035Z,27.73
2017-10-24T20:55:17.105Z,34.20
2017-10-24T20:57:46.854Z,30.70
2017-10-24T21:00:15.846Z,34.40
2017-10-24T21:02:45.477Z,33.10
2017-10-24T21:05:14.466Z,34.63
2017-10-24T21:07:43.875Z,32.60
2017-10-24T21:10:12.831Z,30.77
2017-10-24T21:12:42.607Z,35.40
2017-10-24T21:15:12.396Z,28.43
2017-10-24T21:17:41.498Z,37.67
2017-10-24T21:20:10.909Z,37.13
2017-10-24T21:22:40.618Z,33.17
2017-10-24T21:25:10.345Z,33.10
2017-10-24T21:27:39.307Z,39.97
2017-10-24T21:30:08.325Z,37.87
2017-10-24T21:32:37.283Z,31.23
2017-10-24T21:35:06.241Z,35.27
2017-10-24T21:37:35.705Z,36.77
2017-10-24T21:40:05.488Z,36.03
2017-10-24T21:42:34.777Z,33.97
2017-10-24T21:45:04.528Z,31.00
2017-10-24T21:47:33.472Z,31.40
2017-10-24T21:50:02.484Z,36.37
2017-10-24T21:52:31.471Z,32.33
2017-10-24T21:55:00.396Z,32.17
2017-10-24T21:57:29.341Z,30.70
2017-10-24T21:59:59.737Z,34.27
2017-10-24T22:02:29.459Z,29.93
2017-10-24T22:04:58.865Z,25.50
2017-10-24T22:07:28.583Z,31.63
2017-10-24T22:09:57.677Z,29.67
2017-10-24T22:12:26.611Z,27.00
2017-10-24T22:14:55.562Z,24.60
2017-10-24T22:17:24.541Z,26.60
2017-10-24T22:19:53.501Z,27.43
2017-10-24T22:22:22.441Z,28.77
2017-10-24T22:24:51.445Z,28.33
2017-10-24T22:27:20.401Z,26.80
2017-10-24T22:29:49.770Z,27.33
2017-10-24T22:32:18.734Z,27.23
2017-10-24T22:34:47.733Z,25.17
2017-10-24T22:37:16.714Z,21.57
2017-10-24T22:39:45.749Z,28.30
2017-10-24T22:42:14.696Z,23.97
2017-10-24T22:44:44.424Z,28.57
2017-10-24T22:47:14.231Z,26.87
2017-10-24T22:49:43.630Z,21.43
2017-10-24T22:52:13.392Z,21.87
2017-10-24T22:54:43.129Z,19.50
2017-10-24T22:57:13.588Z,22.53
2017-10-24T22:59:43.320Z,21.80
2017-10-24T23:02:12.324Z,20.97
2017-10-24T23:04:41.738Z,19.33
2017-10-24T23:07:10.774Z,21.67
2017-10-24T23:09:40.516Z,19.93
2017-10-24T23:12:09.479Z,18.13
2017-10-24T23:14:38.840Z,20.57
2017-10-24T23:17:08.567Z,20.17
2017-10-24T23:19:37.514Z,21.50
2017-10-24T23:22:06.473Z,21.97
2017-10-24T23:24:35.853Z,18.80
2017-10-24T23:27:04.799Z,22.40
2017-10-24T23:29:33.849Z,16.77
2017-10-24T23:32:03.611Z,17.87
2017-10-24T23:34:32.656Z,18.93
2017-10-24T23:37:01.704Z,18.33
2017-10-24T23:39:30.672Z,21.07
2017-10-24T23:41:59.645Z,22.33
2017-10-24T23:44:28.595Z,25.13
2017-10-24T23:46:57.705Z,16.10
2017-10-24T23:49:27.415Z,18.13
2017-10-24T23:51:57.197Z,24.77
2017-10-24T23:54:26.152Z,18.53
2017-10-24T23:56:55.157Z,14.33
2017-10-24T23:59:25.330Z,18.90
